Aviation Digital Data Service (ADDS)

Output produced by METARs form (2327 UTC 29 August 2016)
found at http://www.aviationweather.gov/adds/metars/
 
KCXY 292256Z 03008KT 10SM CLR 32/13 A3010 RMK AO2 SLP191 T03170133
KCXY 292156Z 02006KT 10SM CLR 33/14 A3009 RMK AO2 SLP188 T03280144
KCXY 292056Z 03005KT 10SM CLR 33/14 A3009 RMK AO2 SLP188 T03330139 56019
KCXY 291956Z 34005KT 10SM FEW077 33/15 A3010 RMK AO2 SLP193 T03330150
KCXY 291856Z 31006KT 10SM CLR 33/16 A3013 RMK AO2 SLP200 T03280161
KCXY 291756Z 33008KT 290V360 10SM SCT050 32/17 A3015 RMK AO2 SLP208 T03220167 10322 20233 56013
KCXY 291656Z 02005KT 10SM SCT050 32/19 A3016 RMK AO2 SLP211 T03170189
KCXY 291556Z 36004KT 10SM CLR 30/19 A3017 RMK AO2 SLP216 T03000194
KCXY 291456Z 32006KT 10SM CLR 29/19 A3019 RMK AO2 SLP221 T02890194 51005
KCXY 291356Z 34005KT 10SM CLR 28/18 A3019 RMK AO2 SLP221 T02780183
KCXY 291256Z 34005KT 10SM CLR 27/18 A3018 RMK AO2 SLP220 T02670183
KCXY 291156Z 25003KT 10SM CLR 23/19 A3017 RMK AO2 SLP215 T02330189 10250 20206 50006
KCXY 291056Z 23004KT 10SM CLR 21/18 A3017 RMK AO2 SLP216 T02060178
KCXY 290956Z AUTO 24004KT 10SM CLR 21/18 A3016 RMK AO2 SLP210 T02110178
KCXY 290856Z AUTO 30004KT 10SM CLR 23/18 A3015 RMK AO2 SLP209 T02280183 53002
KCXY 290756Z AUTO 19003KT 10SM CLR 23/18 A3014 RMK AO2 SLP204 T02280183
KCXY 290656Z AUTO 17004KT 10SM CLR 23/18 A3013 RMK AO2 SLP202 T02280183
KCXY 290556Z AUTO 00000KT 10SM CLR 24/18 A3015 RMK AO2 SLP207 T02440178 10283 20244 56016
KCXY 290456Z AUTO VRB03KT 10SM CLR 26/18 A3016 RMK AO2 SLP211 T02560178 403280200
KCXY 290356Z AUTO 00000KT 10SM CLR 25/18 A3017 RMK AO2 SLP216 T02500178
KCXY 290256Z AUTO 25004KT 10SM CLR 25/18 A3019 RMK AO2 SLP223 T02500178 51026
KCXY 290156Z AUTO 00000KT 10SM CLR 27/17 A3018 RMK AO2 SLP219 T02670172
KCXY 290056Z AUTO 00000KT 10SM CLR 27/16 A3015 RMK AO2 SLP209 T02720161
KCXY 282356Z AUTO 16010G16KT 10SM CLR 28/16 A3012 RMK AO2 SLP197 T02830161 10328 20283 58014
KCXY 282256Z AUTO 12008KT 10SM CLR 30/18 A3013 RMK AO2 SLP202 T03000178
KCXY 282156Z AUTO 14007KT 10SM CLR 32/16 A3014 RMK AO2 SLP206 T03170161
KCXY 282056Z AUTO 14010KT 10SM CLR 32/16 A3016 RMK AO2 SLP211 T03220161 56021
KCXY 281956Z AUTO 18008KT 10SM CLR 32/16 A3017 RMK AO2 SLP214 T03220156
KCXY 281856Z 11008KT 10SM CLR 32/16 A3020 RMK AO2 SLP225 T03170161
KCXY 281756Z 14007KT 100V170 10SM CLR 32/17 A3022 RMK AO2 SLP232 T03170172 10317 20228 56015
KCXY 281656Z 10008KT 10SM CLR 31/19 A3023 RMK AO2 SLP236 T03060189
KCXY 281556Z 08005KT 10SM CLR 29/20 A3025 RMK AO2 SLP242 T02890200
KCXY 281456Z 09006KT 10SM CLR 27/21 A3027 RMK AO2 SLP247 T02720206 50000
KCXY 281356Z 08004KT 10SM CLR 26/20 A3027 RMK AO2 SLP248 T02560200
KCXY 281256Z 00000KT 10SM CLR 24/20 A3027 RMK AO2 SLP247 T02390200
KCXY 281156Z 14003KT 9SM CLR 23/20 A3027 RMK AO2 SLP247 T02280200 10228 20200 51011